createdAt,value
2023-04-21T00:02:17.301Z,82.13
2023-04-21T00:04:45.740Z,82.52
2023-04-21T00:07:14.646Z,82.83
2023-04-21T00:09:41.117Z,83.41
2023-04-21T00:12:07.668Z,83.98
2023-04-21T00:14:34.024Z,84.02
2023-04-21T00:17:00.535Z,84.71
2023-04-21T00:19:26.950Z,84.56
2023-04-21T00:21:58.515Z,85.29
2023-04-21T00:24:25.728Z,84.98
2023-04-21T00:26:52.056Z,85.40
2023-04-21T00:29:18.949Z,85.14
2023-04-21T00:31:45.519Z,85.66
2023-04-21T00:34:11.859Z,85.89
2023-04-21T00:36:38.187Z,85.52
2023-04-21T00:39:04.538Z,86.36
2023-04-21T00:41:31.346Z,85.72
2023-04-21T00:44:08.135Z,86.29
2023-04-21T00:46:35.850Z,87.06
2023-04-21T00:49:07.206Z,86.75
2023-04-21T00:51:35.676Z,86.91
2023-04-21T00:54:06.201Z,87.20
2023-04-21T00:56:34.500Z,87.32
2023-04-21T00:59:02.143Z,87.66
2023-04-21T01:01:30.035Z,88.10
2023-04-21T01:03:59.205Z,88.14
2023-04-21T01:06:29.028Z,87.79
2023-04-21T01:08:55.858Z,88.56
2023-04-21T01:11:22.252Z,88.74
2023-04-21T01:13:48.694Z,88.64
2023-04-21T01:16:18.669Z,88.73
2023-04-21T01:18:45.613Z,89.10
2023-04-21T01:21:12.973Z,88.88
2023-04-21T01:23:40.476Z,89.79
2023-04-21T01:26:07.586Z,90.23
2023-04-21T01:28:34.241Z,90.16
2023-04-21T01:31:00.837Z,89.62
2023-04-21T01:33:27.583Z,89.98
2023-04-21T01:35:55.490Z,90.24
2023-04-21T01:38:22.389Z,90.07
2023-04-21T01:40:51.743Z,90.21
2023-04-21T01:43:20.977Z,90.22
2023-04-21T01:45:47.750Z,90.33
2023-04-21T01:48:14.249Z,90.99
2023-04-21T01:50:40.613Z,90.31
2023-04-21T01:53:06.928Z,90.45
2023-04-21T01:55:33.457Z,90.19
2023-04-21T01:57:59.989Z,90.12
2023-04-21T02:00:26.896Z,90.51
2023-04-21T02:02:53.420Z,90.38
2023-04-21T02:05:19.904Z,90.53
2023-04-21T02:07:46.295Z,90.91
2023-04-21T02:10:13.115Z,91.15
2023-04-21T02:12:39.544Z,91.63
2023-04-21T02:15:06.744Z,91.23
2023-04-21T02:17:33.160Z,91.04
2023-04-21T02:20:00.009Z,91.34
2023-04-21T02:22:27.208Z,91.48
2023-04-21T02:24:53.547Z,90.87
2023-04-21T02:27:19.930Z,91.22
2023-04-21T02:29:46.296Z,91.71
2023-04-21T02:32:22.264Z,91.89
2023-04-21T02:34:52.049Z,91.71
2023-04-21T02:37:18.470Z,91.49
2023-04-21T02:39:44.845Z,91.58
2023-04-21T02:42:11.448Z,92.31
2023-04-21T02:44:38.359Z,92.15
2023-04-21T02:47:04.842Z,91.81
2023-04-21T02:49:31.229Z,91.47
2023-04-21T02:52:00.640Z,91.94
2023-04-21T02:54:26.969Z,91.33
2023-04-21T02:56:53.363Z,92.14
2023-04-21T02:59:20.313Z,92.37
2023-04-21T03:01:49.131Z,91.98
2023-04-21T03:04:15.666Z,92.14
2023-04-21T03:06:42.309Z,92.26
2023-04-21T03:09:09.087Z,92.16
2023-04-21T03:11:35.416Z,92.52
2023-04-21T03:14:01.723Z,92.39
2023-04-21T03:16:28.229Z,92.20
2023-04-21T03:18:54.598Z,92.70
2023-04-21T03:21:21.039Z,92.46
2023-04-21T03:23:47.441Z,92.10
2023-04-21T03:26:13.775Z,93.03
2023-04-21T03:28:40.176Z,92.41
2023-04-21T03:31:06.551Z,93.09
2023-04-21T03:33:32.858Z,92.63
2023-04-21T03:35:59.231Z,92.93
2023-04-21T03:38:25.723Z,92.58
2023-04-21T03:40:52.093Z,93.09
2023-04-21T03:43:18.509Z,93.44
2023-04-21T03:45:44.972Z,93.14
2023-04-21T03:48:11.327Z,92.71
2023-04-21T03:50:38.423Z,93.63
2023-04-21T03:53:04.804Z,93.07
2023-04-21T03:55:31.197Z,93.58
2023-04-21T03:57:57.565Z,92.76
2023-04-21T04:00:24.145Z,93.67
2023-04-21T04:02:50.740Z,93.45
2023-04-21T04:05:17.193Z,93.70
2023-04-21T04:07:43.584Z,93.59
2023-04-21T04:10:10.209Z,93.21
2023-04-21T04:12:36.593Z,93.15
2023-04-21T04:15:03.255Z,93.70
2023-04-21T04:17:29.601Z,93.17
2023-04-21T04:19:56.428Z,93.71
2023-04-21T04:22:22.759Z,93.86
2023-04-21T04:24:49.106Z,93.55
2023-04-21T04:27:15.435Z,93.35
2023-04-21T04:29:41.830Z,93.93
2023-04-21T04:32:10.853Z,93.79
2023-04-21T04:34:37.992Z,92.97
2023-04-21T04:37:04.662Z,93.93
2023-04-21T04:39:32.140Z,93.79
2023-04-21T04:41:58.512Z,93.21
2023-04-21T04:44:25.800Z,93.28
2023-04-21T04:46:52.862Z,93.22
2023-04-21T04:49:19.726Z,93.49
2023-04-21T04:51:46.350Z,93.96
2023-04-21T04:54:12.893Z,93.81
2023-04-21T04:56:40.369Z,93.66
2023-04-21T04:59:06.874Z,93.86
2023-04-21T05:01:33.237Z,93.84
2023-04-21T05:03:59.830Z,94.11
2023-04-21T05:06:26.565Z,94.10
2023-04-21T05:08:52.912Z,93.58
2023-04-21T05:11:19.325Z,93.93
2023-04-21T05:13:45.857Z,93.73
2023-04-21T05:16:12.490Z,94.14
2023-04-21T05:18:38.935Z,93.75
2023-04-21T05:21:05.469Z,93.72
2023-04-21T05:23:31.822Z,93.78
2023-04-21T05:25:58.192Z,93.57
2023-04-21T05:28:24.713Z,93.76
2023-04-21T05:30:51.045Z,93.62
2023-04-21T05:33:21.186Z,93.17
2023-04-21T05:35:47.580Z,93.53
2023-04-21T05:38:13.909Z,93.08
2023-04-21T05:40:40.314Z,94.04
2023-04-21T05:43:06.738Z,93.47
2023-04-21T05:45:33.051Z,93.58
2023-04-21T05:47:59.428Z,93.10
2023-04-21T05:50:28.517Z,93.01
2023-04-21T05:52:54.920Z,93.09
2023-04-21T05:55:21.406Z,93.13
2023-04-21T05:57:47.831Z,93.28
2023-04-21T06:00:14.854Z,92.76
2023-04-21T06:02:41.426Z,93.81
2023-04-21T06:07:37.165Z,93.63
2023-04-21T06:10:04.201Z,92.62
2023-04-21T06:12:30.658Z,92.75
2023-04-21T06:14:57.662Z,93.62
2023-04-21T06:17:24.354Z,92.60
2023-04-21T06:19:53.910Z,92.89
2023-04-21T06:22:20.882Z,92.96
2023-04-21T06:24:47.513Z,92.69
2023-04-21T06:27:14.262Z,92.65
2023-04-21T06:29:42.736Z,92.44
2023-04-21T06:32:10.555Z,92.86
2023-04-21T06:34:37.700Z,93.01
2023-04-21T06:37:04.353Z,92.81
2023-04-21T06:39:31.009Z,92.56
2023-04-21T06:41:58.385Z,92.42
2023-04-21T06:44:24.803Z,92.14
2023-04-21T06:46:51.234Z,92.34
2023-04-21T06:49:17.916Z,92.07
2023-04-21T06:51:44.881Z,92.20
2023-04-21T06:54:11.271Z,92.08
2023-04-21T06:56:37.705Z,91.27
2023-04-21T06:59:04.132Z,90.76
2023-04-21T07:01:30.604Z,90.66
2023-04-21T07:03:57.064Z,89.86
2023-04-21T07:06:23.564Z,89.52
2023-04-21T07:08:49.943Z,89.80
2023-04-21T07:11:16.284Z,89.08
2023-04-21T07:13:42.655Z,89.62
2023-04-21T07:16:09.011Z,87.79
2023-04-21T07:18:35.360Z,84.96
2023-04-21T07:21:01.786Z,81.06
2023-04-21T07:23:28.357Z,81.67
2023-04-21T07:25:54.758Z,80.37
2023-04-21T07:28:21.067Z,80.20
2023-04-21T07:30:47.577Z,79.93
2023-04-21T07:33:14.081Z,80.74
2023-04-21T07:35:40.496Z,82.24
2023-04-21T07:38:06.834Z,82.54
2023-04-21T07:40:33.290Z,82.92
2023-04-21T07:42:59.749Z,82.76
2023-04-21T07:45:26.473Z,83.70
2023-04-21T07:47:52.936Z,84.04
2023-04-21T07:50:19.359Z,83.80
2023-04-21T07:52:45.904Z,82.25
2023-04-21T07:55:12.265Z,82.11
2023-04-21T07:57:40.006Z,82.08
2023-04-21T08:00:07.729Z,81.28
2023-04-21T08:02:34.246Z,81.58
2023-04-21T08:05:00.961Z,81.08
2023-04-21T08:07:27.491Z,80.74
2023-04-21T08:09:53.929Z,81.61
2023-04-21T08:12:20.281Z,81.31
2023-04-21T08:14:46.785Z,81.48
2023-04-21T08:17:13.183Z,82.04
2023-04-21T08:19:39.626Z,82.24
2023-04-21T08:22:05.972Z,81.47
2023-04-21T08:24:32.605Z,81.00
2023-04-21T08:26:59.028Z,78.59
2023-04-21T08:29:25.421Z,77.03
2023-04-21T08:31:51.759Z,78.07
2023-04-21T08:34:20.725Z,78.58
2023-04-21T08:36:47.828Z,78.86
2023-04-21T08:39:17.740Z,79.82
2023-04-21T08:41:44.446Z,79.76
2023-04-21T08:44:13.832Z,78.28
2023-04-21T08:46:40.448Z,77.40
2023-04-21T08:49:09.649Z,78.34
2023-04-21T08:51:36.313Z,78.27
2023-04-21T08:54:02.703Z,77.82
2023-04-21T08:56:29.112Z,78.42
2023-04-21T08:58:56.256Z,78.67
2023-04-21T09:01:22.788Z,78.32
2023-04-21T09:03:49.242Z,77.99
2023-04-21T09:06:16.645Z,76.68
2023-04-21T09:08:44.426Z,77.07
2023-04-21T09:11:14.548Z,76.18
2023-04-21T09:13:43.019Z,75.68
2023-04-21T09:16:18.724Z,74.80
2023-04-21T09:18:45.344Z,73.98
2023-04-21T09:21:14.118Z,73.96
2023-04-21T09:23:52.408Z,72.76
2023-04-21T09:26:22.508Z,72.80
2023-04-21T09:28:50.676Z,72.19
2023-04-21T09:31:24.412Z,71.66
2023-04-21T09:33:58.775Z,72.58
2023-04-21T09:36:29.579Z,70.25
2023-04-21T09:41:32.399Z,71.14
2023-04-21T09:44:02.040Z,71.20
2023-04-21T09:46:32.357Z,71.34
2023-04-21T09:49:01.684Z,72.95
2023-04-21T09:51:52.852Z,72.10
2023-04-21T09:56:54.743Z,71.67
2023-04-21T09:59:27.421Z,71.13
2023-04-21T10:01:56.128Z,70.89
2023-04-21T10:04:25.225Z,69.27
2023-04-21T10:06:53.006Z,70.15
2023-04-21T10:09:22.449Z,69.43
2023-04-21T10:11:48.792Z,68.85
2023-04-21T10:14:15.227Z,68.07
2023-04-21T10:16:42.828Z,65.50
2023-04-21T10:19:31.843Z,65.52
2023-04-21T10:21:58.992Z,66.58
2023-04-21T10:24:29.665Z,67.23
2023-04-21T10:27:02.059Z,68.46
2023-04-21T10:29:37.473Z,68.21
2023-04-21T10:32:10.518Z,66.38
2023-04-21T10:34:41.322Z,65.44
2023-04-21T10:37:11.603Z,66.39
2023-04-21T10:39:48.169Z,66.41
2023-04-21T10:42:20.725Z,67.23
2023-04-21T10:44:57.086Z,66.59
2023-04-21T10:47:27.165Z,66.34
2023-04-21T10:49:53.755Z,65.92
2023-04-21T10:52:21.429Z,67.11
2023-04-21T10:54:47.800Z,65.84
2023-04-21T10:57:16.656Z,66.48
2023-04-21T10:59:44.582Z,67.04
2023-04-21T11:02:12.631Z,66.53
2023-04-21T11:04:42.033Z,66.56
2023-04-21T11:07:11.907Z,66.46
2023-04-21T11:09:39.940Z,65.94
2023-04-21T11:12:09.422Z,64.68
2023-04-21T11:14:37.711Z,64.29
2023-04-21T11:17:06.062Z,64.26
2023-04-21T11:19:32.604Z,63.36
2023-04-21T11:21:59.459Z,66.51
2023-04-21T11:24:25.948Z,63.93
2023-04-21T11:26:52.386Z,66.20
2023-04-21T11:29:18.796Z,66.42
2023-04-21T11:31:48.947Z,68.22
2023-04-21T11:34:16.262Z,68.60
2023-04-21T11:36:43.462Z,67.60
2023-04-21T11:39:21.560Z,65.84
2023-04-21T11:41:51.850Z,67.45
2023-04-21T11:44:43.120Z,66.53
2023-04-21T11:47:17.558Z,65.42
2023-04-21T11:49:46.376Z,64.34
2023-04-21T11:52:24.072Z,61.09
2023-04-21T11:55:05.817Z,60.51
2023-04-21T11:57:33.378Z,57.39
2023-04-21T12:00:01.105Z,57.77
2023-04-21T12:02:29.642Z,54.38
2023-04-21T12:05:09.594Z,55.34
2023-04-21T12:07:38.098Z,51.73
2023-04-21T12:10:12.740Z,57.15
2023-04-21T12:12:40.481Z,53.01
2023-04-21T12:15:08.185Z,54.19
2023-04-21T12:17:45.261Z,55.22
2023-04-21T12:20:13.018Z,55.43
2023-04-21T12:22:39.380Z,56.45
2023-04-21T12:25:06.262Z,55.93
2023-04-21T12:27:32.990Z,55.69
2023-04-21T12:29:59.391Z,55.62
2023-04-21T12:32:26.192Z,50.19
2023-04-21T12:34:52.626Z,50.57
2023-04-21T12:37:19.318Z,51.65
2023-04-21T12:39:45.887Z,51.92
2023-04-21T12:42:12.282Z,49.18
2023-04-21T12:44:38.705Z,51.48
2023-04-21T12:47:05.266Z,54.12
2023-04-21T12:49:31.936Z,54.77
2023-04-21T12:51:58.813Z,53.96
2023-04-21T12:54:25.134Z,52.68
2023-04-21T12:56:51.481Z,55.01
2023-04-21T12:59:17.936Z,56.54
2023-04-21T13:01:44.392Z,57.69
2023-04-21T13:04:11.234Z,58.40
2023-04-21T13:06:38.729Z,58.99
2023-04-21T13:09:06.297Z,58.85
2023-04-21T13:11:32.775Z,58.41
2023-04-21T13:13:59.161Z,58.90
2023-04-21T13:16:27.797Z,56.97
2023-04-21T13:18:56.512Z,57.42
2023-04-21T13:21:22.889Z,57.82
2023-04-21T13:23:49.285Z,59.28
2023-04-21T13:26:16.068Z,60.78
2023-04-21T13:28:42.520Z,61.93
2023-04-21T13:31:08.971Z,61.09
2023-04-21T13:33:35.650Z,60.70
2023-04-21T13:36:04.865Z,61.13
2023-04-21T13:38:32.133Z,58.93
2023-04-21T13:40:58.933Z,59.29
2023-04-21T13:43:25.432Z,58.99
2023-04-21T13:45:52.365Z,56.33
2023-04-21T13:48:24.019Z,56.14
2023-04-21T13:50:51.430Z,53.86
2023-04-21T13:53:20.638Z,54.76
2023-04-21T13:55:47.742Z,51.24
2023-04-21T13:58:17.800Z,52.10
2023-04-21T14:00:44.251Z,52.82
2023-04-21T14:03:11.666Z,53.63
2023-04-21T14:05:38.967Z,50.42
2023-04-21T14:08:05.667Z,50.88
2023-04-21T14:10:32.146Z,51.03
2023-04-21T14:12:58.481Z,49.71
2023-04-21T14:15:26.276Z,50.04
2023-04-21T14:17:53.335Z,47.66
2023-04-21T14:20:20.117Z,48.42
2023-04-21T14:22:47.559Z,48.01
2023-04-21T14:25:14.048Z,49.10
2023-04-21T14:27:40.570Z,46.04
2023-04-21T14:30:07.583Z,46.37
2023-04-21T14:32:34.005Z,46.38
2023-04-21T14:35:03.130Z,47.96
2023-04-21T14:37:29.547Z,48.94
2023-04-21T14:39:56.002Z,48.68
2023-04-21T14:42:22.498Z,49.73
2023-04-21T14:44:48.921Z,50.90
2023-04-21T14:47:15.433Z,51.47
2023-04-21T14:49:41.938Z,52.03
2023-04-21T14:52:09.236Z,51.88
2023-04-21T14:54:35.674Z,51.91
2023-04-21T14:57:17.498Z,52.84
2023-04-21T14:59:47.088Z,53.04
2023-04-21T15:02:14.198Z,53.11
2023-04-21T15:04:40.991Z,53.49
2023-04-21T15:07:07.425Z,54.61
2023-04-21T15:09:34.141Z,54.58
2023-04-21T15:12:00.732Z,54.64
2023-04-21T15:14:27.195Z,55.97
2023-04-21T15:16:53.562Z,56.70
2023-04-21T15:19:19.961Z,56.48
2023-04-21T15:21:46.371Z,56.17
2023-04-21T15:24:12.879Z,55.96
2023-04-21T15:26:40.293Z,55.97
2023-04-21T15:29:07.047Z,55.00
2023-04-21T15:31:33.875Z,54.09
2023-04-21T15:34:00.486Z,52.75
2023-04-21T15:36:27.560Z,51.98
2023-04-21T15:38:53.908Z,50.18
2023-04-21T15:41:20.375Z,51.40
2023-04-21T15:43:47.596Z,49.04
2023-04-21T15:46:14.086Z,49.04
2023-04-21T15:48:44.032Z,50.30
2023-04-21T15:51:13.498Z,51.59
2023-04-21T15:53:47.221Z,51.82
2023-04-21T15:56:14.578Z,52.81
2023-04-21T15:58:41.055Z,52.08
2023-04-21T16:01:08.031Z,50.83
2023-04-21T16:03:34.807Z,49.35
2023-04-21T16:06:01.963Z,50.55
2023-04-21T16:08:28.420Z,51.49
2023-04-21T16:10:54.891Z,51.58
2023-04-21T16:13:21.286Z,52.08
2023-04-21T16:15:47.702Z,51.65
2023-04-21T16:18:14.188Z,51.72
2023-04-21T16:20:41.067Z,51.56
2023-04-21T16:23:07.555Z,51.54
2023-04-21T16:25:34.026Z,52.83
2023-04-21T16:28:00.718Z,53.82
2023-04-21T16:30:27.117Z,54.76
2023-04-21T16:32:53.528Z,54.23
2023-04-21T16:35:19.935Z,53.12
2023-04-21T16:37:46.430Z,54.35
2023-04-21T16:40:13.011Z,54.69
2023-04-21T16:42:39.410Z,54.97
2023-04-21T16:45:06.569Z,55.84
2023-04-21T16:47:37.858Z,55.10
2023-04-21T16:50:08.179Z,55.69
2023-04-21T16:52:35.233Z,55.99
2023-04-21T16:55:01.715Z,56.17
2023-04-21T16:57:29.263Z,56.12
2023-04-21T16:59:55.777Z,56.19
2023-04-21T17:02:22.370Z,56.46
2023-04-21T17:04:48.942Z,56.35
2023-04-21T17:07:15.921Z,55.41
2023-04-21T17:09:42.332Z,55.20
2023-04-21T17:12:09.434Z,55.87
2023-04-21T17:14:36.204Z,56.24
2023-04-21T17:17:02.964Z,57.04
2023-04-21T17:19:29.454Z,57.00
2023-04-21T17:21:55.999Z,57.13
2023-04-21T17:24:22.537Z,57.56
2023-04-21T17:26:49.029Z,58.50
2023-04-21T17:29:15.664Z,58.60
2023-04-21T17:31:42.060Z,58.94
2023-04-21T17:34:08.461Z,59.53
2023-04-21T17:36:35.225Z,59.22
2023-04-21T17:39:01.840Z,59.59
2023-04-21T17:41:28.170Z,60.69
2023-04-21T17:43:57.130Z,59.72
2023-04-21T17:46:25.038Z,60.32
2023-04-21T17:48:52.228Z,59.38
2023-04-21T17:51:19.249Z,59.43
2023-04-21T17:53:46.591Z,59.88
2023-04-21T17:56:14.329Z,59.32
2023-04-21T17:58:41.378Z,59.89
2023-04-21T18:01:08.212Z,60.74
2023-04-21T18:03:36.192Z,61.00
2023-04-21T18:06:03.043Z,61.54
2023-04-21T18:08:29.553Z,62.42
2023-04-21T18:10:55.862Z,64.25
2023-04-21T18:13:22.196Z,66.20
2023-04-21T18:15:48.657Z,73.43
2023-04-21T18:18:15.120Z,80.52
2023-04-21T18:20:42.124Z,86.64
2023-04-21T18:23:08.639Z,91.03
2023-04-21T18:28:07.472Z,94.40
2023-04-21T18:30:34.087Z,94.52
2023-04-21T18:33:00.473Z,95.03
2023-04-21T18:35:26.865Z,95.41
2023-04-21T18:37:53.270Z,95.61
2023-04-21T18:40:19.778Z,95.54
2023-04-21T18:42:46.697Z,95.67
2023-04-21T18:45:13.078Z,95.35
2023-04-21T18:47:40.198Z,95.08
2023-04-21T18:50:08.174Z,96.10
2023-04-21T18:52:34.604Z,96.02
2023-04-21T18:55:01.147Z,96.18
2023-04-21T18:57:27.669Z,96.19
2023-04-21T18:59:54.296Z,96.27
2023-04-21T19:02:20.981Z,96.52
2023-04-21T19:04:47.658Z,96.94
2023-04-21T19:07:15.647Z,96.78
2023-04-21T19:09:42.000Z,96.53
2023-04-21T19:12:08.444Z,96.80
2023-04-21T19:14:46.055Z,96.95
2023-04-21T19:17:13.694Z,96.58
2023-04-21T19:19:40.705Z,96.93
2023-04-21T19:22:07.154Z,96.95
2023-04-21T19:24:33.861Z,97.05
2023-04-21T19:27:02.160Z,96.98
2023-04-21T19:29:28.772Z,97.35
2023-04-21T19:31:55.355Z,96.58
2023-04-21T19:34:22.182Z,96.55
2023-04-21T19:36:48.876Z,96.98
2023-04-21T19:39:15.333Z,96.77
2023-04-21T19:41:41.681Z,97.48
2023-04-21T19:44:08.000Z,97.01
2023-04-21T19:46:34.585Z,97.79
2023-04-21T19:49:01.101Z,98.34
2023-04-21T19:51:27.879Z,97.50
2023-04-21T19:54:10.123Z,98.11
2023-04-21T19:56:38.067Z,97.42
2023-04-21T19:59:05.506Z,97.88
2023-04-21T20:01:33.367Z,97.57
2023-04-21T20:03:59.988Z,98.30
2023-04-21T20:06:27.120Z,98.06
2023-04-21T20:08:53.569Z,97.72
2023-04-21T20:11:20.915Z,98.39
2023-04-21T20:13:47.832Z,97.91
2023-04-21T20:16:14.197Z,98.44
2023-04-21T20:18:40.661Z,98.59
2023-04-21T20:21:07.090Z,98.12
2023-04-21T20:23:33.699Z,97.90
2023-04-21T20:26:00.257Z,98.15
2023-04-21T20:28:27.604Z,98.13
2023-04-21T20:30:56.184Z,98.51
2023-04-21T20:33:22.816Z,98.66
2023-04-21T20:35:49.714Z,98.33
2023-04-21T20:38:16.375Z,98.14
2023-04-21T20:40:43.018Z,98.49
2023-04-21T20:43:10.327Z,98.59
2023-04-21T20:45:37.604Z,98.57
2023-04-21T20:48:04.530Z,98.49
2023-04-21T20:50:30.968Z,98.70
2023-04-21T20:52:58.223Z,98.47
2023-04-21T20:55:24.706Z,98.47
2023-04-21T20:57:51.306Z,97.79
2023-04-21T21:00:17.912Z,98.27
2023-04-21T21:02:44.777Z,98.53
2023-04-21T21:05:11.298Z,98.52
2023-04-21T21:07:37.900Z,97.89
2023-04-21T21:10:04.979Z,98.09
2023-04-21T21:12:31.466Z,97.90
2023-04-21T21:14:58.023Z,97.58
2023-04-21T21:17:24.544Z,97.68
2023-04-21T21:19:51.007Z,96.30
2023-04-21T21:22:17.432Z,96.71
2023-04-21T21:24:43.886Z,96.41
2023-04-21T21:27:10.652Z,96.61
2023-04-21T21:29:37.357Z,97.14
2023-04-21T21:32:04.006Z,96.83
2023-04-21T21:34:30.381Z,97.14
2023-04-21T21:36:56.772Z,97.37
2023-04-21T21:39:23.302Z,98.04
2023-04-21T21:41:49.641Z,97.70
2023-04-21T21:44:16.086Z,98.19
2023-04-21T21:46:42.858Z,97.97
2023-04-21T21:49:09.275Z,98.27
2023-04-21T21:51:35.696Z,98.47
2023-04-21T21:54:02.096Z,98.04
2023-04-21T21:56:28.575Z,98.64
2023-04-21T21:58:55.053Z,98.07
2023-04-21T22:01:21.554Z,98.43
2023-04-21T22:03:48.128Z,98.48
2023-04-21T22:06:16.961Z,98.32
2023-04-21T22:08:43.817Z,98.80
2023-04-21T22:11:10.236Z,98.98
2023-04-21T22:13:36.882Z,99.05
2023-04-21T22:16:03.462Z,99.18
2023-04-21T22:18:30.190Z,98.88
2023-04-21T22:20:58.128Z,98.73
2023-04-21T22:23:25.408Z,98.70
2023-04-21T22:25:51.783Z,99.39
2023-04-21T22:28:18.210Z,98.91
2023-04-21T22:30:44.684Z,99.29
2023-04-21T22:33:11.260Z,98.93
2023-04-21T22:35:37.617Z,98.93
2023-04-21T22:38:03.952Z,98.93
2023-04-21T22:40:30.439Z,98.98
2023-04-21T22:42:56.805Z,98.68
2023-04-21T22:45:23.261Z,99.04
2023-04-21T22:47:49.676Z,98.28
2023-04-21T22:50:16.149Z,99.16
2023-04-21T22:52:42.698Z,98.92
2023-04-21T22:55:09.571Z,98.58
2023-04-21T22:57:37.463Z,98.52
2023-04-21T23:00:06.357Z,98.48
2023-04-21T23:02:33.102Z,99.02
2023-04-21T23:04:59.582Z,98.69
2023-04-21T23:07:26.101Z,99.13
2023-04-21T23:09:52.549Z,99.49
2023-04-21T23:12:18.970Z,99.32
2023-04-21T23:14:45.395Z,98.77
2023-04-21T23:17:11.741Z,99.01
2023-04-21T23:19:38.372Z,98.99
2023-04-21T23:22:05.156Z,98.61
2023-04-21T23:24:31.527Z,99.13
2023-04-21T23:26:57.878Z,98.96
2023-04-21T23:29:24.445Z,98.87
2023-04-21T23:31:50.964Z,98.86
2023-04-21T23:34:17.523Z,99.41
2023-04-21T23:36:43.947Z,98.95
2023-04-21T23:39:11.337Z,98.62
2023-04-21T23:41:37.941Z,98.83
2023-04-21T23:44:04.347Z,98.53
2023-04-21T23:46:30.726Z,98.57
2023-04-21T23:48:57.174Z,99.12
2023-04-21T23:51:23.704Z,99.23
2023-04-21T23:53:50.196Z,98.75
2023-04-21T23:56:16.773Z,99.00
2023-04-21T23:58:43.157Z,99.05
